Terminal Aerodrome Forecast
Issued by NWS

Current Version | Previous Version | Graphics & Text | Print | Product List | Glossary On
Versions: 1 2 3 4 5 6 7 8 9 10 11 12 13 14 15 16 17 18 19 20 21 22 23 24 25 26
253
FTUS41 KRLX 252341
TAFCKB
TAF
KCKB 252341Z 2600/2624 21005KT P6SM SCT060
     FM261500 24010G16KT P6SM BKN040
     FM261900 25012G19KT 5SM HZ VCTS BKN035CB=

USA.gov is the U.S. government's official web portal to all federal, state and local government web resources and services.